sensor_id;sensor_type;location;lat;lon;timestamp;pressure;altitude;pressure_sealevel;temperature;humidity
8416;BME280;4245;42.120;24.732;2023-02-18T00:02:10;100010.94;;;9.19;47.38
8416;BME280;4245;42.120;24.732;2023-02-18T00:04:37;100008.88;;;9.24;47.68
8416;BME280;4245;42.120;24.732;2023-02-18T00:07:04;100012.53;;;9.39;46.77
8416;BME280;4245;42.120;24.732;2023-02-18T00:09:30;100005.84;;;9.47;46.64
8416;BME280;4245;42.120;24.732;2023-02-18T00:11:59;100005.38;;;9.39;46.48
8416;BME280;4245;42.120;24.732;2023-02-18T00:14:25;100001.31;;;9.34;46.66
8416;BME280;4245;42.120;24.732;2023-02-18T00:16:53;99994.94;;;9.53;46.16
8416;BME280;4245;42.120;24.732;2023-02-18T00:19:20;99998.53;;;9.35;47.02
8416;BME280;4245;42.120;24.732;2023-02-18T00:21:47;100001.47;;;9.46;46.26
8416;BME280;4245;42.120;24.732;2023-02-18T00:24:15;99991.13;;;9.42;46.61
8416;BME280;4245;42.120;24.732;2023-02-18T00:26:42;99997.94;;;9.30;46.99
8416;BME280;4245;42.120;24.732;2023-02-18T00:29:11;99999.09;;;9.42;46.26
8416;BME280;4245;42.120;24.732;2023-02-18T00:31:38;99990.44;;;9.54;45.63
8416;BME280;4245;42.120;24.732;2023-02-18T00:34:05;99984.22;;;9.55;45.97
8416;BME280;4245;42.120;24.732;2023-02-18T00:36:32;99978.97;;;9.38;46.59
8416;BME280;4245;42.120;24.732;2023-02-18T00:39:02;99984.19;;;9.39;46.31
8416;BME280;4245;42.120;24.732;2023-02-18T00:41:30;99977.34;;;9.35;46.66
8416;BME280;4245;42.120;24.732;2023-02-18T00:43:57;99982.88;;;9.31;46.59
8416;BME280;4245;42.120;24.732;2023-02-18T00:46:26;99972.47;;;9.10;47.94
8416;BME280;4245;42.120;24.732;2023-02-18T00:48:54;99963.22;;;9.02;48.12
8416;BME280;4245;42.120;24.732;2023-02-18T00:51:22;99952.94;;;8.96;48.70
8416;BME280;4245;42.120;24.732;2023-02-18T00:53:49;99950.66;;;8.90;48.54
8416;BME280;4245;42.120;24.732;2023-02-18T00:56:17;99949.69;;;8.91;49.07
8416;BME280;4245;42.120;24.732;2023-02-18T00:58:44;99951.56;;;8.89;49.49
8416;BME280;4245;42.120;24.732;2023-02-18T01:01:10;99943.94;;;8.83;49.84
8416;BME280;4245;42.120;24.732;2023-02-18T01:03:40;99941.28;;;8.83;50.06
8416;BME280;4245;42.120;24.732;2023-02-18T01:06:08;99929.78;;;8.84;50.01
8416;BME280;4245;42.120;24.732;2023-02-18T01:08:35;99929.69;;;8.85;50.12
8416;BME280;4245;42.120;24.732;2023-02-18T01:11:04;99925.72;;;8.77;50.34
8416;BME280;4245;42.120;24.732;2023-02-18T01:13:31;99929.16;;;8.79;50.00
8416;BME280;4245;42.120;24.732;2023-02-18T01:15:58;99924.97;;;8.75;50.28
8416;BME280;4245;42.120;24.732;2023-02-18T01:18:25;99918.97;;;8.54;50.80
8416;BME280;4245;42.120;24.732;2023-02-18T01:20:54;99914.00;;;8.48;50.34
8416;BME280;4245;42.120;24.732;2023-02-18T01:23:21;99905.66;;;8.55;50.74
8416;BME280;4245;42.120;24.732;2023-02-18T01:25:48;99909.19;;;8.56;50.59
8416;BME280;4245;42.120;24.732;2023-02-18T01:28:15;99906.91;;;8.48;51.04
8416;BME280;4245;42.120;24.732;2023-02-18T01:30:42;99902.34;;;8.52;50.71
8416;BME280;4245;42.120;24.732;2023-02-18T01:33:09;99900.50;;;8.52;51.11
8416;BME280;4245;42.120;24.732;2023-02-18T01:35:36;99898.59;;;8.56;50.61
8416;BME280;4245;42.120;24.732;2023-02-18T01:38:05;99899.44;;;8.56;50.17
8416;BME280;4245;42.120;24.732;2023-02-18T01:40:31;99892.88;;;8.63;50.48
8416;BME280;4245;42.120;24.732;2023-02-18T01:42:58;99894.66;;;8.63;50.15
8416;BME280;4245;42.120;24.732;2023-02-18T01:45:50;99887.75;;;8.60;50.75
8416;BME280;4245;42.120;24.732;2023-02-18T01:48:19;99883.94;;;8.66;50.16
8416;BME280;4245;42.120;24.732;2023-02-18T01:50:52;99882.44;;;8.60;50.94
8416;BME280;4245;42.120;24.732;2023-02-18T01:53:25;99883.81;;;8.67;50.39
8416;BME280;4245;42.120;24.732;2023-02-18T01:55:52;99883.81;;;8.67;50.67
8416;BME280;4245;42.120;24.732;2023-02-18T01:58:20;99892.31;;;8.74;50.37
8416;BME280;4245;42.120;24.732;2023-02-18T02:00:46;99891.50;;;8.56;51.93
8416;BME280;4245;42.120;24.732;2023-02-18T02:03:13;99887.81;;;8.59;51.33
8416;BME280;4245;42.120;24.732;2023-02-18T02:05:40;99892.81;;;8.65;50.81
8416;BME280;4245;42.120;24.732;2023-02-18T02:08:07;99878.50;;;8.52;51.01
8416;BME280;4245;42.120;24.732;2023-02-18T02:10:42;99883.88;;;8.50;51.59
8416;BME280;4245;42.120;24.732;2023-02-18T02:13:16;99890.22;;;8.63;50.59
8416;BME280;4245;42.120;24.732;2023-02-18T02:15:49;99887.66;;;8.62;50.40
8416;BME280;4245;42.120;24.732;2023-02-18T02:18:40;99889.63;;;8.41;50.66
8416;BME280;4245;42.120;24.732;2023-02-18T02:24:49;99910.25;;;8.35;51.39
8416;BME280;4245;42.120;24.732;2023-02-18T02:27:24;99903.63;;;8.26;51.65
8416;BME280;4245;42.120;24.732;2023-02-18T02:30:27;99904.38;;;8.28;51.56
8416;BME280;4245;42.120;24.732;2023-02-18T02:33:27;99909.63;;;8.29;51.64
8416;BME280;4245;42.120;24.732;2023-02-18T02:36:04;99909.63;;;8.29;51.27
8416;BME280;4245;42.120;24.732;2023-02-18T02:38:39;99901.03;;;8.24;51.56
8416;BME280;4245;42.120;24.732;2023-02-18T02:41:16;99909.69;;;8.28;51.49
8416;BME280;4245;42.120;24.732;2023-02-18T02:43:52;99911.25;;;8.15;51.84
8416;BME280;4245;42.120;24.732;2023-02-18T02:46:27;99912.41;;;8.26;52.15
8416;BME280;4245;42.120;24.732;2023-02-18T02:49:00;99908.75;;;8.29;51.38
8416;BME280;4245;42.120;24.732;2023-02-18T02:51:34;99912.56;;;8.23;51.51
8416;BME280;4245;42.120;24.732;2023-02-18T02:54:13;99916.91;;;8.24;51.52
8416;BME280;4245;42.120;24.732;2023-02-18T02:56:40;99916.47;;;8.16;51.38
8416;BME280;4245;42.120;24.732;2023-02-18T02:59:09;99917.28;;;8.00;51.76
8416;BME280;4245;42.120;24.732;2023-02-18T03:01:52;99913.41;;;8.07;52.29
8416;BME280;4245;42.120;24.732;2023-02-18T03:05:07;99921.28;;;8.08;51.69
8416;BME280;4245;42.120;24.732;2023-02-18T03:07:59;99919.22;;;7.96;51.51
8416;BME280;4245;42.120;24.732;2023-02-18T03:10:37;99912.63;;;7.88;52.27
8416;BME280;4245;42.120;24.732;2023-02-18T03:13:09;99900.88;;;7.93;52.07
8416;BME280;4245;42.120;24.732;2023-02-18T03:15:48;99905.41;;;8.08;51.57
8416;BME280;4245;42.120;24.732;2023-02-18T03:18:22;99895.03;;;8.04;51.23
8416;BME280;4245;42.120;24.732;2023-02-18T03:20:54;99891.41;;;8.06;50.56
8416;BME280;4245;42.120;24.732;2023-02-18T03:23:26;99886.09;;;8.06;50.58
8416;BME280;4245;42.120;24.732;2023-02-18T03:25:55;99876.38;;;8.07;50.92
8416;BME280;4245;42.120;24.732;2023-02-18T03:28:26;99873.81;;;8.05;50.72
8416;BME280;4245;42.120;24.732;2023-02-18T03:30:59;99875.22;;;8.12;51.02
8416;BME280;4245;42.120;24.732;2023-02-18T03:33:31;99880.34;;;8.15;50.44
8416;BME280;4245;42.120;24.732;2023-02-18T03:36:00;99879.56;;;8.13;50.19
8416;BME280;4245;42.120;24.732;2023-02-18T03:38:34;99870.56;;;8.17;50.25
8416;BME280;4245;42.120;24.732;2023-02-18T03:41:02;99874.81;;;8.20;49.97
8416;BME280;4245;42.120;24.732;2023-02-18T03:43:29;99888.13;;;8.18;50.39
8416;BME280;4245;42.120;24.732;2023-02-18T03:45:56;99881.19;;;8.16;49.68
8416;BME280;4245;42.120;24.732;2023-02-18T03:48:23;99878.13;;;8.42;48.86
8416;BME280;4245;42.120;24.732;2023-02-18T03:50:50;99881.84;;;8.55;48.54
8416;BME280;4245;42.120;24.732;2023-02-18T03:53:16;99885.97;;;8.61;48.27
8416;BME280;4245;42.120;24.732;2023-02-18T03:55:44;99891.31;;;8.59;49.03
8416;BME280;4245;42.120;24.732;2023-02-18T03:58:11;99891.63;;;8.70;48.76
8416;BME280;4245;42.120;24.732;2023-02-18T04:00:38;99895.69;;;8.60;48.20
8416;BME280;4245;42.120;24.732;2023-02-18T04:03:05;99898.03;;;8.66;48.47
8416;BME280;4245;42.120;24.732;2023-02-18T04:05:32;99902.59;;;8.63;48.23
8416;BME280;4245;42.120;24.732;2023-02-18T04:07:58;99904.13;;;8.51;48.99
8416;BME280;4245;42.120;24.732;2023-02-18T04:10:25;99908.22;;;8.57;48.80
8416;BME280;4245;42.120;24.732;2023-02-18T04:12:53;99913.91;;;8.49;49.25
8416;BME280;4245;42.120;24.732;2023-02-18T04:15:20;99913.06;;;8.49;48.44
8416;BME280;4245;42.120;24.732;2023-02-18T04:17:47;99912.81;;;8.53;48.57
8416;BME280;4245;42.120;24.732;2023-02-18T04:20:14;99916.56;;;8.66;48.08
8416;BME280;4245;42.120;24.732;2023-02-18T04:22:41;99918.97;;;8.71;48.31
8416;BME280;4245;42.120;24.732;2023-02-18T04:25:08;99924.34;;;8.69;48.08
8416;BME280;4245;42.120;24.732;2023-02-18T04:27:35;99930.09;;;8.78;47.94
8416;BME280;4245;42.120;24.732;2023-02-18T04:30:04;99931.34;;;8.70;48.50
8416;BME280;4245;42.120;24.732;2023-02-18T04:32:32;99939.03;;;8.92;47.71
8416;BME280;4245;42.120;24.732;2023-02-18T04:34:58;99931.06;;;8.92;47.36
8416;BME280;4245;42.120;24.732;2023-02-18T04:37:25;99935.00;;;8.85;47.88
8416;BME280;4245;42.120;24.732;2023-02-18T04:39:52;99936.63;;;8.88;47.95
8416;BME280;4245;42.120;24.732;2023-02-18T04:42:19;99942.34;;;8.96;47.47
8416;BME280;4245;42.120;24.732;2023-02-18T04:44:46;99956.81;;;9.06;47.26
8416;BME280;4245;42.120;24.732;2023-02-18T04:47:14;99949.91;;;9.03;47.00
8416;BME280;4245;42.120;24.732;2023-02-18T04:49:41;99952.13;;;9.28;46.04
8416;BME280;4245;42.120;24.732;2023-02-18T04:52:07;99940.47;;;9.31;45.99
8416;BME280;4245;42.120;24.732;2023-02-18T04:54:34;99930.72;;;9.31;46.04
8416;BME280;4245;42.120;24.732;2023-02-18T04:57:01;99935.94;;;9.33;46.09
8416;BME280;4245;42.120;24.732;2023-02-18T04:59:28;99942.97;;;9.34;45.94
8416;BME280;4245;42.120;24.732;2023-02-18T05:01:55;99944.75;;;9.33;45.86
8416;BME280;4245;42.120;24.732;2023-02-18T05:04:23;99937.50;;;9.37;45.68
8416;BME280;4245;42.120;24.732;2023-02-18T05:06:50;99938.97;;;9.42;45.40
8416;BME280;4245;42.120;24.732;2023-02-18T05:09:17;99937.84;;;9.46;45.17
8416;BME280;4245;42.120;24.732;2023-02-18T05:11:43;99936.13;;;9.45;45.50
8416;BME280;4245;42.120;24.732;2023-02-18T05:14:11;99933.91;;;9.38;45.50
8416;BME280;4245;42.120;24.732;2023-02-18T05:16:38;99928.09;;;9.47;45.09
8416;BME280;4245;42.120;24.732;2023-02-18T05:19:05;99943.50;;;9.72;44.25
8416;BME280;4245;42.120;24.732;2023-02-18T05:21:33;99937.84;;;9.78;43.71
8416;BME280;4245;42.120;24.732;2023-02-18T05:24:00;99936.63;;;9.83;43.35
8416;BME280;4245;42.120;24.732;2023-02-18T05:26:27;99932.28;;;9.82;43.71
8416;BME280;4245;42.120;24.732;2023-02-18T05:28:54;99929.03;;;9.77;44.02
8416;BME280;4245;42.120;24.732;2023-02-18T05:31:21;99923.81;;;9.76;43.98
8416;BME280;4245;42.120;24.732;2023-02-18T05:33:48;99930.31;;;9.86;43.88
8416;BME280;4245;42.120;24.732;2023-02-18T05:36:15;99926.19;;;9.96;43.39
8416;BME280;4245;42.120;24.732;2023-02-18T05:38:43;99914.81;;;9.78;44.28
8416;BME280;4245;42.120;24.732;2023-02-18T05:41:10;99916.03;;;9.73;44.34
8416;BME280;4245;42.120;24.732;2023-02-18T05:43:36;99909.44;;;9.80;44.41
8416;BME280;4245;42.120;24.732;2023-02-18T05:46:17;99915.00;;;9.91;43.80
8416;BME280;4245;42.120;24.732;2023-02-18T05:48:44;99901.97;;;9.86;43.71
8416;BME280;4245;42.120;24.732;2023-02-18T05:51:10;99913.88;;;9.95;43.27
8416;BME280;4245;42.120;24.732;2023-02-18T05:53:37;99912.47;;;10.03;43.63
8416;BME280;4245;42.120;24.732;2023-02-18T05:56:06;99914.69;;;10.11;43.91
8416;BME280;4245;42.120;24.732;2023-02-18T05:58:32;99914.84;;;10.08;43.93
8416;BME280;4245;42.120;24.732;2023-02-18T06:00:59;99913.72;;;10.12;44.08
8416;BME280;4245;42.120;24.732;2023-02-18T06:03:26;99920.34;;;10.05;44.03
8416;BME280;4245;42.120;24.732;2023-02-18T06:05:53;99910.75;;;10.02;43.72
8416;BME280;4245;42.120;24.732;2023-02-18T06:08:20;99923.28;;;10.00;43.99
8416;BME280;4245;42.120;24.732;2023-02-18T06:10:46;99927.84;;;10.13;44.06
8416;BME280;4245;42.120;24.732;2023-02-18T06:13:15;99930.19;;;10.19;43.68
8416;BME280;4245;42.120;24.732;2023-02-18T06:15:42;99920.63;;;10.16;43.93
8416;BME280;4245;42.120;24.732;2023-02-18T06:18:09;99920.94;;;10.26;43.65
8416;BME280;4245;42.120;24.732;2023-02-18T06:20:35;99928.25;;;10.36;43.62
8416;BME280;4245;42.120;24.732;2023-02-18T06:23:02;99920.97;;;10.40;43.09
8416;BME280;4245;42.120;24.732;2023-02-18T06:25:29;99923.06;;;10.35;43.34
8416;BME280;4245;42.120;24.732;2023-02-18T06:27:56;99918.91;;;10.45;43.11
8416;BME280;4245;42.120;24.732;2023-02-18T06:30:24;99914.25;;;10.49;43.02
8416;BME280;4245;42.120;24.732;2023-02-18T06:32:51;99914.06;;;10.52;42.75
8416;BME280;4245;42.120;24.732;2023-02-18T06:35:18;99919.56;;;10.49;43.22
8416;BME280;4245;42.120;24.732;2023-02-18T06:37:44;99920.44;;;10.49;43.10
8416;BME280;4245;42.120;24.732;2023-02-18T06:40:12;99923.19;;;10.62;42.89
8416;BME280;4245;42.120;24.732;2023-02-18T06:42:39;99920.00;;;10.71;42.27
8416;BME280;4245;42.120;24.732;2023-02-18T06:45:06;99923.63;;;10.84;42.20
8416;BME280;4245;42.120;24.732;2023-02-18T06:47:34;99920.78;;;10.87;42.05
8416;BME280;4245;42.120;24.732;2023-02-18T06:50:01;99918.97;;;11.16;41.51
8416;BME280;4245;42.120;24.732;2023-02-18T06:52:28;99913.84;;;11.41;40.94
8416;BME280;4245;42.120;24.732;2023-02-18T06:54:57;99906.09;;;11.65;40.42
8416;BME280;4245;42.120;24.732;2023-02-18T06:57:24;99895.94;;;11.98;39.93
8416;BME280;4245;42.120;24.732;2023-02-18T06:59:52;99885.91;;;12.02;39.92
8416;BME280;4245;42.120;24.732;2023-02-18T07:02:18;99882.47;;;12.27;39.58
8416;BME280;4245;42.120;24.732;2023-02-18T07:04:47;99871.81;;;12.39;39.54
8416;BME280;4245;42.120;24.732;2023-02-18T07:07:13;99872.06;;;12.61;39.00
8416;BME280;4245;42.120;24.732;2023-02-18T07:09:40;99869.31;;;12.63;39.31
8416;BME280;4245;42.120;24.732;2023-02-18T07:12:07;99875.06;;;12.95;38.67
8416;BME280;4245;42.120;24.732;2023-02-18T07:14:34;99880.06;;;13.12;38.48
8416;BME280;4245;42.120;24.732;2023-02-18T07:17:01;99891.84;;;13.46;37.49
8416;BME280;4245;42.120;24.732;2023-02-18T07:19:27;99879.28;;;13.72;36.61
8416;BME280;4245;42.120;24.732;2023-02-18T07:21:56;99886.09;;;14.00;36.53
8416;BME280;4245;42.120;24.732;2023-02-18T07:24:23;99876.47;;;14.21;35.68
8416;BME280;4245;42.120;24.732;2023-02-18T07:26:49;99878.47;;;14.30;35.17
8416;BME280;4245;42.120;24.732;2023-02-18T07:29:16;99877.56;;;14.53;34.34
8416;BME280;4245;42.120;24.732;2023-02-18T07:31:43;99885.03;;;14.61;33.92
8416;BME280;4245;42.120;24.732;2023-02-18T07:34:10;99887.13;;;14.79;33.56
8416;BME280;4245;42.120;24.732;2023-02-18T07:36:36;99879.59;;;14.85;33.34
8416;BME280;4245;42.120;24.732;2023-02-18T07:39:05;99863.19;;;15.00;33.34
8416;BME280;4245;42.120;24.732;2023-02-18T07:41:32;99854.69;;;14.95;33.12
8416;BME280;4245;42.120;24.732;2023-02-18T07:43:59;99848.84;;;14.90;33.20
8416;BME280;4245;42.120;24.732;2023-02-18T07:46:25;99848.22;;;14.87;33.24
8416;BME280;4245;42.120;24.732;2023-02-18T07:48:52;99854.66;;;15.17;32.71
8416;BME280;4245;42.120;24.732;2023-02-18T07:51:19;99848.34;;;15.07;32.71
8416;BME280;4245;42.120;24.732;2023-02-18T07:53:46;99846.03;;;15.03;32.58
8416;BME280;4245;42.120;24.732;2023-02-18T07:56:14;99846.03;;;14.92;32.64
8416;BME280;4245;42.120;24.732;2023-02-18T07:58:42;99849.19;;;14.74;32.85
8416;BME280;4245;42.120;24.732;2023-02-18T08:01:11;99838.00;;;14.69;33.16
8416;BME280;4245;42.120;24.732;2023-02-18T08:03:41;99834.59;;;14.78;32.78
8416;BME280;4245;42.120;24.732;2023-02-18T08:06:18;99838.25;;;15.11;32.48
8416;BME280;4245;42.120;24.732;2023-02-18T08:08:46;99837.84;;;15.49;32.11
8416;BME280;4245;42.120;24.732;2023-02-18T08:11:14;99840.19;;;15.85;31.69
8416;BME280;4245;42.120;24.732;2023-02-18T08:13:41;99829.47;;;16.38;30.74
8416;BME280;4245;42.120;24.732;2023-02-18T08:16:08;99831.38;;;16.68;30.61
8416;BME280;4245;42.120;24.732;2023-02-18T08:18:35;99839.75;;;17.05;30.05
8416;BME280;4245;42.120;24.732;2023-02-18T08:21:02;99836.91;;;17.36;29.88
8416;BME280;4245;42.120;24.732;2023-02-18T08:23:30;99835.34;;;17.93;28.90
8416;BME280;4245;42.120;24.732;2023-02-18T08:25:58;99837.72;;;17.87;28.82
8416;BME280;4245;42.120;24.732;2023-02-18T08:28:26;99831.78;;;17.93;28.43
8416;BME280;4245;42.120;24.732;2023-02-18T08:30:53;99835.75;;;17.69;28.54
8416;BME280;4245;42.120;24.732;2023-02-18T08:33:22;99837.34;;;17.42;29.08
8416;BME280;4245;42.120;24.732;2023-02-18T08:35:50;99834.03;;;17.28;29.00
8416;BME280;4245;42.120;24.732;2023-02-18T08:38:18;99835.66;;;17.41;29.14
8416;BME280;4245;42.120;24.732;2023-02-18T08:40:45;99836.53;;;17.51;28.56
8416;BME280;4245;42.120;24.732;2023-02-18T08:43:12;99838.22;;;17.52;28.56
8416;BME280;4245;42.120;24.732;2023-02-18T08:45:41;99843.50;;;17.72;28.54
8416;BME280;4245;42.120;24.732;2023-02-18T08:48:10;99831.38;;;17.78;28.46
8416;BME280;4245;42.120;24.732;2023-02-18T08:50:37;99839.72;;;17.85;28.46
8416;BME280;4245;42.120;24.732;2023-02-18T08:53:04;99850.19;;;18.16;28.24
8416;BME280;4245;42.120;24.732;2023-02-18T08:55:32;99841.56;;;18.13;28.23
8416;BME280;4245;42.120;24.732;2023-02-18T08:57:59;99854.03;;;17.95;28.28
8416;BME280;4245;42.120;24.732;2023-02-18T09:00:27;99852.00;;;17.68;28.85
8416;BME280;4245;42.120;24.732;2023-02-18T09:02:55;99845.66;;;17.78;28.92
8416;BME280;4245;42.120;24.732;2023-02-18T09:05:21;99842.13;;;18.26;28.43
8416;BME280;4245;42.120;24.732;2023-02-18T09:07:48;99851.34;;;18.99;27.62
8416;BME280;4245;42.120;24.732;2023-02-18T09:10:15;99847.03;;;19.52;26.84
8416;BME280;4245;42.120;24.732;2023-02-18T09:12:42;99848.47;;;19.92;26.43
8416;BME280;4245;42.120;24.732;2023-02-18T09:15:09;99851.69;;;19.78;26.55
8416;BME280;4245;42.120;24.732;2023-02-18T09:17:36;99848.03;;;19.51;26.63
8416;BME280;4245;42.120;24.732;2023-02-18T09:20:05;99841.09;;;18.75;27.22
8416;BME280;4245;42.120;24.732;2023-02-18T09:22:32;99832.34;;;18.44;27.59
8416;BME280;4245;42.120;24.732;2023-02-18T09:24:59;99834.47;;;18.60;27.19
8416;BME280;4245;42.120;24.732;2023-02-18T09:27:25;99837.88;;;18.62;27.20
8416;BME280;4245;42.120;24.732;2023-02-18T09:29:52;99837.66;;;19.20;26.63
8416;BME280;4245;42.120;24.732;2023-02-18T09:32:19;99843.41;;;19.44;26.37
8416;BME280;4245;42.120;24.732;2023-02-18T09:34:46;99845.50;;;19.50;26.12
8416;BME280;4245;42.120;24.732;2023-02-18T09:37:14;99854.66;;;19.57;26.06
8416;BME280;4245;42.120;24.732;2023-02-18T09:39:41;99854.25;;;19.25;26.44
8416;BME280;4245;42.120;24.732;2023-02-18T09:42:12;99855.22;;;19.24;26.48
8416;BME280;4245;42.120;24.732;2023-02-18T09:44:42;99849.16;;;18.75;26.79
8416;BME280;4245;42.120;24.732;2023-02-18T09:47:12;99858.81;;;18.78;26.91
8416;BME280;4245;42.120;24.732;2023-02-18T09:49:46;99846.59;;;18.74;26.94
8416;BME280;4245;42.120;24.732;2023-02-18T09:52:20;99850.94;;;19.31;26.78
8416;BME280;4245;42.120;24.732;2023-02-18T09:54:48;99844.84;;;19.83;26.31
8416;BME280;4245;42.120;24.732;2023-02-18T09:57:22;99838.31;;;20.21;25.90
8416;BME280;4245;42.120;24.732;2023-02-18T09:59:56;99833.56;;;20.33;26.04
8416;BME280;4245;42.120;24.732;2023-02-18T10:02:25;99829.91;;;20.42;25.50
8416;BME280;4245;42.120;24.732;2023-02-18T10:04:53;99845.47;;;19.95;25.64
8416;BME280;4245;42.120;24.732;2023-02-18T10:07:25;99821.84;;;19.44;25.89
8416;BME280;4245;42.120;24.732;2023-02-18T10:09:54;99798.84;;;19.13;26.16
8416;BME280;4245;42.120;24.732;2023-02-18T10:12:23;99808.84;;;18.93;26.50
8416;BME280;4245;42.120;24.732;2023-02-18T10:14:53;99785.22;;;19.41;26.10
8416;BME280;4245;42.120;24.732;2023-02-18T10:17:22;99803.97;;;19.70;25.44
8416;BME280;4245;42.120;24.732;2023-02-18T10:19:51;99784.66;;;19.47;25.88
8416;BME280;4245;42.120;24.732;2023-02-18T10:22:19;99779.75;;;19.78;25.64
8416;BME280;4245;42.120;24.732;2023-02-18T10:24:50;99783.78;;;19.74;25.59
8416;BME280;4245;42.120;24.732;2023-02-18T10:27:23;99777.81;;;19.53;25.76
8416;BME280;4245;42.120;24.732;2023-02-18T10:29:50;99773.03;;;19.20;26.56
8416;BME280;4245;42.120;24.732;2023-02-18T10:32:20;99762.91;;;19.04;26.56
8416;BME280;4245;42.120;24.732;2023-02-18T10:34:51;99772.97;;;19.29;26.70
8416;BME280;4245;42.120;24.732;2023-02-18T10:37:36;99753.41;;;19.27;26.57
8416;BME280;4245;42.120;24.732;2023-02-18T10:40:11;99749.34;;;19.68;26.38
8416;BME280;4245;42.120;24.732;2023-02-18T10:42:46;99744.69;;;20.14;25.82
8416;BME280;4245;42.120;24.732;2023-02-18T10:45:30;99737.25;;;21.01;25.04
8416;BME280;4245;42.120;24.732;2023-02-18T10:48:07;99734.44;;;21.53;24.50
8416;BME280;4245;42.120;24.732;2023-02-18T10:50:42;99728.50;;;21.74;24.24
8416;BME280;4245;42.120;24.732;2023-02-18T10:53:11;99717.34;;;21.60;23.97
8416;BME280;4245;42.120;24.732;2023-02-18T10:55:42;99715.34;;;21.87;23.62
8416;BME280;4245;42.120;24.732;2023-02-18T10:58:31;99720.78;;;22.19;23.47
8416;BME280;4245;42.120;24.732;2023-02-18T11:00:59;99729.44;;;22.86;22.90
8416;BME280;4245;42.120;24.732;2023-02-18T11:03:39;99707.13;;;24.14;22.38
8416;BME280;4245;42.120;24.732;2023-02-18T11:06:15;99697.94;;;24.96;21.68
8416;BME280;4245;42.120;24.732;2023-02-18T11:08:45;99709.97;;;25.80;20.72
8416;BME280;4245;42.120;24.732;2023-02-18T11:11:20;99716.16;;;25.53;21.04
8416;BME280;4245;42.120;24.732;2023-02-18T11:13:52;99705.53;;;25.01;20.90
8416;BME280;4245;42.120;24.732;2023-02-18T11:16:21;99696.91;;;24.53;21.64
8416;BME280;4245;42.120;24.732;2023-02-18T11:18:48;99695.34;;;24.21;22.07
8416;BME280;4245;42.120;24.732;2023-02-18T11:21:23;99694.09;;;23.72;22.21
8416;BME280;4245;42.120;24.732;2023-02-18T11:23:55;99697.44;;;23.20;22.67
8416;BME280;4245;42.120;24.732;2023-02-18T11:26:27;99699.00;;;22.76;23.46
8416;BME280;4245;42.120;24.732;2023-02-18T11:28:59;99691.06;;;23.05;23.11
8416;BME280;4245;42.120;24.732;2023-02-18T11:31:38;99686.88;;;23.03;23.05
8416;BME280;4245;42.120;24.732;2023-02-18T11:34:15;99681.41;;;23.64;22.31
8416;BME280;4245;42.120;24.732;2023-02-18T11:36:42;99685.28;;;24.07;21.87
8416;BME280;4245;42.120;24.732;2023-02-18T11:39:17;99679.81;;;24.45;21.86
8416;BME280;4245;42.120;24.732;2023-02-18T11:41:48;99683.03;;;24.63;21.74
8416;BME280;4245;42.120;24.732;2023-02-18T11:44:21;99681.63;;;24.82;21.28
8416;BME280;4245;42.120;24.732;2023-02-18T11:46:59;99668.44;;;24.49;22.04
8416;BME280;4245;42.120;24.732;2023-02-18T11:49:28;99674.50;;;24.81;21.79
8416;BME280;4245;42.120;24.732;2023-02-18T11:52:03;99670.75;;;24.23;21.71
8416;BME280;4245;42.120;24.732;2023-02-18T11:54:32;99662.50;;;23.94;22.12
8416;BME280;4245;42.120;24.732;2023-02-18T11:57:11;99675.38;;;24.14;22.46
8416;BME280;4245;42.120;24.732;2023-02-18T11:59:44;99667.47;;;24.86;21.65
8416;BME280;4245;42.120;24.732;2023-02-18T12:02:25;99662.94;;;25.44;21.21
8416;BME280;4245;42.120;24.732;2023-02-18T12:05:00;99665.44;;;25.60;20.91
8416;BME280;4245;42.120;24.732;2023-02-18T12:07:30;99647.50;;;25.30;21.15
8416;BME280;4245;42.120;24.732;2023-02-18T12:10:04;99646.03;;;24.91;21.48
8416;BME280;4245;42.120;24.732;2023-02-18T12:12:44;99640.00;;;24.96;21.37
8416;BME280;4245;42.120;24.732;2023-02-18T12:15:15;99647.44;;;24.43;21.91
8416;BME280;4245;42.120;24.732;2023-02-18T12:17:56;99645.59;;;23.69;22.61
8416;BME280;4245;42.120;24.732;2023-02-18T12:20:40;99631.75;;;23.18;23.27
8416;BME280;4245;42.120;24.732;2023-02-18T12:23:17;99636.19;;;24.32;22.54
8416;BME280;4245;42.120;24.732;2023-02-18T12:25:52;99627.78;;;23.89;22.65
8416;BME280;4245;42.120;24.732;2023-02-18T12:28:38;99615.94;;;23.67;23.00
8416;BME280;4245;42.120;24.732;2023-02-18T12:34:14;99614.81;;;25.23;22.07
8416;BME280;4245;42.120;24.732;2023-02-18T12:36:57;99608.47;;;24.51;22.69
8416;BME280;4245;42.120;24.732;2023-02-18T12:39:36;99610.03;;;24.16;23.13
8416;BME280;4245;42.120;24.732;2023-02-18T12:42:14;99614.81;;;24.14;23.37
8416;BME280;4245;42.120;24.732;2023-02-18T12:44:55;99598.06;;;23.96;23.63
8416;BME280;4245;42.120;24.732;2023-02-18T12:47:33;99604.94;;;23.83;23.69
8416;BME280;4245;42.120;24.732;2023-02-18T12:50:29;99608.88;;;24.33;23.44
8416;BME280;4245;42.120;24.732;2023-02-18T12:53:09;99599.97;;;24.54;22.99
8416;BME280;4245;42.120;24.732;2023-02-18T12:55:50;99584.63;;;23.65;23.87
8416;BME280;4245;42.120;24.732;2023-02-18T12:58:33;99598.09;;;23.05;24.06
8416;BME280;4245;42.120;24.732;2023-02-18T13:01:28;99599.84;;;22.75;24.54
8416;BME280;4245;42.120;24.732;2023-02-18T13:04:18;99589.72;;;22.52;24.84
8416;BME280;4245;42.120;24.732;2023-02-18T13:07:11;99583.56;;;22.67;25.06
8416;BME280;4245;42.120;24.732;2023-02-18T13:09:51;99578.47;;;23.25;24.73
8416;BME280;4245;42.120;24.732;2023-02-18T13:12:27;99573.97;;;23.40;24.42
8416;BME280;4245;42.120;24.732;2023-02-18T13:15:00;99578.22;;;23.80;24.44
8416;BME280;4245;42.120;24.732;2023-02-18T13:17:33;99575.91;;;24.21;23.92
8416;BME280;4245;42.120;24.732;2023-02-18T13:20:04;99573.44;;;24.56;23.85
8416;BME280;4245;42.120;24.732;2023-02-18T13:22:33;99561.59;;;24.78;23.56
8416;BME280;4245;42.120;24.732;2023-02-18T13:25:00;99571.44;;;24.64;23.69
8416;BME280;4245;42.120;24.732;2023-02-18T13:27:44;99570.84;;;24.48;23.81
8416;BME280;4245;42.120;24.732;2023-02-18T13:30:21;99576.06;;;23.91;24.46
8416;BME280;4245;42.120;24.732;2023-02-18T13:32:59;99576.53;;;23.94;24.21
8416;BME280;4245;42.120;24.732;2023-02-18T13:35:33;99581.63;;;24.27;24.01
8416;BME280;4245;42.120;24.732;2023-02-18T13:40:48;99580.97;;;25.26;23.15
8416;BME280;4245;42.120;24.732;2023-02-18T13:43:28;99573.44;;;25.06;22.94